sensor_id;sensor_type;location;lat;lon;timestamp;temperature;humidity
22526;DHT22;11429;50.842;4.386;2024-03-22T00:00:29;13.70;99.90
22526;DHT22;11429;50.842;4.386;2024-03-22T00:02:54;13.70;99.90
22526;DHT22;11429;50.842;4.386;2024-03-22T00:05:20;13.70;99.90
22526;DHT22;11429;50.842;4.386;2024-03-22T00:07:47;13.70;99.90
22526;DHT22;11429;50.842;4.386;2024-03-22T00:10:14;13.70;99.90
22526;DHT22;11429;50.842;4.386;2024-03-22T00:12:40;13.60;99.90
22526;DHT22;11429;50.842;4.386;2024-03-22T00:15:06;13.70;99.90
22526;DHT22;11429;50.842;4.386;2024-03-22T00:17:32;13.70;99.90
22526;DHT22;11429;50.842;4.386;2024-03-22T00:19:59;13.70;99.90
22526;DHT22;11429;50.842;4.386;2024-03-22T00:22:25;13.50;99.90
22526;DHT22;11429;50.842;4.386;2024-03-22T00:24:51;13.70;99.90
22526;DHT22;11429;50.842;4.386;2024-03-22T00:27:17;13.70;99.90
22526;DHT22;11429;50.842;4.386;2024-03-22T00:29:42;13.70;99.90
22526;DHT22;11429;50.842;4.386;2024-03-22T00:32:09;13.80;99.90
22526;DHT22;11429;50.842;4.386;2024-03-22T00:34:35;13.90;99.90
22526;DHT22;11429;50.842;4.386;2024-03-22T00:37:00;13.80;99.90
22526;DHT22;11429;50.842;4.386;2024-03-22T00:39:26;13.80;99.90
22526;DHT22;11429;50.842;4.386;2024-03-22T00:41:52;13.80;99.90
22526;DHT22;11429;50.842;4.386;2024-03-22T00:44:17;13.80;99.90
22526;DHT22;11429;50.842;4.386;2024-03-22T00:46:43;13.90;99.90
22526;DHT22;11429;50.842;4.386;2024-03-22T00:49:09;13.90;99.90
22526;DHT22;11429;50.842;4.386;2024-03-22T00:51:34;14.10;99.90
22526;DHT22;11429;50.842;4.386;2024-03-22T00:54:00;14.10;99.90
22526;DHT22;11429;50.842;4.386;2024-03-22T00:56:26;14.10;99.90
22526;DHT22;11429;50.842;4.386;2024-03-22T00:58:51;14.00;99.90
22526;DHT22;11429;50.842;4.386;2024-03-22T01:01:17;14.00;99.90
22526;DHT22;11429;50.842;4.386;2024-03-22T01:03:43;13.90;99.90
22526;DHT22;11429;50.842;4.386;2024-03-22T01:06:09;13.70;99.90
22526;DHT22;11429;50.842;4.386;2024-03-22T01:08:34;13.70;99.90
22526;DHT22;11429;50.842;4.386;2024-03-22T01:11:00;13.70;99.90
22526;DHT22;11429;50.842;4.386;2024-03-22T01:13:26;13.70;99.90
22526;DHT22;11429;50.842;4.386;2024-03-22T01:15:52;13.70;99.90
22526;DHT22;11429;50.842;4.386;2024-03-22T01:18:18;13.70;99.90
22526;DHT22;11429;50.842;4.386;2024-03-22T01:20:43;13.60;99.90
22526;DHT22;11429;50.842;4.386;2024-03-22T01:23:09;13.50;99.90
22526;DHT22;11429;50.842;4.386;2024-03-22T01:25:35;13.70;99.90
22526;DHT22;11429;50.842;4.386;2024-03-22T01:28:00;13.60;99.90
22526;DHT22;11429;50.842;4.386;2024-03-22T01:30:26;13.50;99.90
22526;DHT22;11429;50.842;4.386;2024-03-22T01:32:55;13.30;99.90
22526;DHT22;11429;50.842;4.386;2024-03-22T01:35:21;13.30;99.90
22526;DHT22;11429;50.842;4.386;2024-03-22T01:37:47;13.20;99.90
22526;DHT22;11429;50.842;4.386;2024-03-22T01:40:13;12.90;99.90
22526;DHT22;11429;50.842;4.386;2024-03-22T01:42:39;12.80;99.90
22526;DHT22;11429;50.842;4.386;2024-03-22T01:45:06;12.90;99.90
22526;DHT22;11429;50.842;4.386;2024-03-22T01:47:31;12.90;99.90
22526;DHT22;11429;50.842;4.386;2024-03-22T01:49:57;13.00;99.90
22526;DHT22;11429;50.842;4.386;2024-03-22T01:52:23;13.00;99.90
22526;DHT22;11429;50.842;4.386;2024-03-22T01:54:49;13.10;99.90
22526;DHT22;11429;50.842;4.386;2024-03-22T01:57:15;13.00;99.90
22526;DHT22;11429;50.842;4.386;2024-03-22T01:59:41;13.00;99.90
22526;DHT22;11429;50.842;4.386;2024-03-22T02:02:07;12.90;99.90
22526;DHT22;11429;50.842;4.386;2024-03-22T02:04:33;12.90;99.90
22526;DHT22;11429;50.842;4.386;2024-03-22T02:06:59;13.00;99.90
22526;DHT22;11429;50.842;4.386;2024-03-22T02:09:25;12.90;99.90
22526;DHT22;11429;50.842;4.386;2024-03-22T02:11:51;12.90;99.90
22526;DHT22;11429;50.842;4.386;2024-03-22T02:14:16;12.80;99.90
22526;DHT22;11429;50.842;4.386;2024-03-22T02:16:42;12.80;99.90
22526;DHT22;11429;50.842;4.386;2024-03-22T02:19:08;12.80;99.90
22526;DHT22;11429;50.842;4.386;2024-03-22T02:21:34;12.70;99.90
22526;DHT22;11429;50.842;4.386;2024-03-22T02:24:00;12.80;99.90
22526;DHT22;11429;50.842;4.386;2024-03-22T02:26:26;12.90;99.90
22526;DHT22;11429;50.842;4.386;2024-03-22T02:28:51;12.90;99.90
22526;DHT22;11429;50.842;4.386;2024-03-22T02:31:17;12.80;99.90
22526;DHT22;11429;50.842;4.386;2024-03-22T02:33:43;12.80;99.90
22526;DHT22;11429;50.842;4.386;2024-03-22T02:36:09;12.70;99.90
22526;DHT22;11429;50.842;4.386;2024-03-22T02:38:35;12.70;99.90
22526;DHT22;11429;50.842;4.386;2024-03-22T02:41:00;12.80;99.90
22526;DHT22;11429;50.842;4.386;2024-03-22T02:43:26;12.70;99.90
22526;DHT22;11429;50.842;4.386;2024-03-22T02:45:52;12.70;99.90
22526;DHT22;11429;50.842;4.386;2024-03-22T02:48:17;12.80;99.90
22526;DHT22;11429;50.842;4.386;2024-03-22T02:50:43;13.00;99.90
22526;DHT22;11429;50.842;4.386;2024-03-22T02:53:09;12.90;99.90
22526;DHT22;11429;50.842;4.386;2024-03-22T02:55:39;13.00;99.90
22526;DHT22;11429;50.842;4.386;2024-03-22T02:58:05;12.90;99.90
22526;DHT22;11429;50.842;4.386;2024-03-22T03:00:35;12.90;99.90
22526;DHT22;11429;50.842;4.386;2024-03-22T03:03:00;12.90;99.90
22526;DHT22;11429;50.842;4.386;2024-03-22T03:05:26;13.00;99.90
22526;DHT22;11429;50.842;4.386;2024-03-22T03:07:52;12.80;99.90
22526;DHT22;11429;50.842;4.386;2024-03-22T03:10:17;12.70;99.90
22526;DHT22;11429;50.842;4.386;2024-03-22T03:12:43;12.70;99.90
22526;DHT22;11429;50.842;4.386;2024-03-22T03:15:09;12.70;99.90
22526;DHT22;11429;50.842;4.386;2024-03-22T03:17:35;12.70;99.90
22526;DHT22;11429;50.842;4.386;2024-03-22T03:20:01;12.60;99.90
22526;DHT22;11429;50.842;4.386;2024-03-22T03:22:26;12.70;99.90
22526;DHT22;11429;50.842;4.386;2024-03-22T03:24:52;12.90;99.90
22526;DHT22;11429;50.842;4.386;2024-03-22T03:27:17;12.80;99.90
22526;DHT22;11429;50.842;4.386;2024-03-22T03:29:43;12.80;99.90
22526;DHT22;11429;50.842;4.386;2024-03-22T03:32:09;12.70;99.90
22526;DHT22;11429;50.842;4.386;2024-03-22T03:34:34;12.60;99.90
22526;DHT22;11429;50.842;4.386;2024-03-22T03:37:00;12.70;99.90
22526;DHT22;11429;50.842;4.386;2024-03-22T03:39:27;12.80;99.90
22526;DHT22;11429;50.842;4.386;2024-03-22T03:41:55;12.90;99.90
22526;DHT22;11429;50.842;4.386;2024-03-22T03:44:20;12.90;99.90
22526;DHT22;11429;50.842;4.386;2024-03-22T03:46:46;12.80;99.90
22526;DHT22;11429;50.842;4.386;2024-03-22T03:49:12;12.70;99.90
22526;DHT22;11429;50.842;4.386;2024-03-22T03:51:37;12.70;99.90
22526;DHT22;11429;50.842;4.386;2024-03-22T03:54:03;12.60;99.90
22526;DHT22;11429;50.842;4.386;2024-03-22T03:56:29;12.60;99.90
22526;DHT22;11429;50.842;4.386;2024-03-22T03:58:55;12.80;99.90
22526;DHT22;11429;50.842;4.386;2024-03-22T04:01:21;12.80;99.90
22526;DHT22;11429;50.842;4.386;2024-03-22T04:03:48;12.70;99.90
22526;DHT22;11429;50.842;4.386;2024-03-22T04:06:14;12.70;99.90
22526;DHT22;11429;50.842;4.386;2024-03-22T04:08:40;12.60;99.90
22526;DHT22;11429;50.842;4.386;2024-03-22T04:11:06;12.70;99.90
22526;DHT22;11429;50.842;4.386;2024-03-22T04:13:31;12.70;99.90
22526;DHT22;11429;50.842;4.386;2024-03-22T04:15:59;12.60;99.90
22526;DHT22;11429;50.842;4.386;2024-03-22T04:18:25;12.60;99.90
22526;DHT22;11429;50.842;4.386;2024-03-22T04:20:55;12.70;99.90
22526;DHT22;11429;50.842;4.386;2024-03-22T04:23:21;12.90;99.90
22526;DHT22;11429;50.842;4.386;2024-03-22T04:26:00;13.00;99.90
22526;DHT22;11429;50.842;4.386;2024-03-22T04:28:27;12.80;99.90
22526;DHT22;11429;50.842;4.386;2024-03-22T04:31:04;12.70;99.90
22526;DHT22;11429;50.842;4.386;2024-03-22T04:33:31;12.70;99.90
22526;DHT22;11429;50.842;4.386;2024-03-22T04:35:57;12.70;99.90
22526;DHT22;11429;50.842;4.386;2024-03-22T04:38:26;12.80;99.90
22526;DHT22;11429;50.842;4.386;2024-03-22T04:40:52;12.80;99.90
22526;DHT22;11429;50.842;4.386;2024-03-22T04:43:19;12.70;99.90
22526;DHT22;11429;50.842;4.386;2024-03-22T04:45:47;12.70;99.90
22526;DHT22;11429;50.842;4.386;2024-03-22T04:48:16;12.60;99.90
22526;DHT22;11429;50.842;4.386;2024-03-22T04:50:42;12.60;99.90
22526;DHT22;11429;50.842;4.386;2024-03-22T04:53:08;12.70;99.90
22526;DHT22;11429;50.842;4.386;2024-03-22T04:55:34;12.60;99.90
22526;DHT22;11429;50.842;4.386;2024-03-22T04:58:00;12.50;99.90
22526;DHT22;11429;50.842;4.386;2024-03-22T05:00:26;12.30;99.90
22526;DHT22;11429;50.842;4.386;2024-03-22T05:02:52;12.30;99.90
22526;DHT22;11429;50.842;4.386;2024-03-22T05:05:18;12.30;99.90
22526;DHT22;11429;50.842;4.386;2024-03-22T05:07:44;12.40;99.90
22526;DHT22;11429;50.842;4.386;2024-03-22T05:10:10;12.50;99.90
22526;DHT22;11429;50.842;4.386;2024-03-22T05:12:36;12.50;99.90
22526;DHT22;11429;50.842;4.386;2024-03-22T05:15:06;12.50;99.90
22526;DHT22;11429;50.842;4.386;2024-03-22T05:17:32;12.40;99.90
22526;DHT22;11429;50.842;4.386;2024-03-22T05:19:59;12.40;99.90
22526;DHT22;11429;50.842;4.386;2024-03-22T05:22:24;12.30;99.90
22526;DHT22;11429;50.842;4.386;2024-03-22T05:24:50;12.20;99.90
22526;DHT22;11429;50.842;4.386;2024-03-22T05:27:17;12.30;99.90
22526;DHT22;11429;50.842;4.386;2024-03-22T05:29:43;12.30;99.90
22526;DHT22;11429;50.842;4.386;2024-03-22T05:32:08;12.20;99.90
22526;DHT22;11429;50.842;4.386;2024-03-22T05:34:34;12.20;99.90
22526;DHT22;11429;50.842;4.386;2024-03-22T05:37:01;12.10;99.90
22526;DHT22;11429;50.842;4.386;2024-03-22T05:39:27;12.30;99.90
22526;DHT22;11429;50.842;4.386;2024-03-22T05:41:53;12.10;99.90
22526;DHT22;11429;50.842;4.386;2024-03-22T05:44:22;12.20;99.90
22526;DHT22;11429;50.842;4.386;2024-03-22T05:46:48;12.20;99.90
22526;DHT22;11429;50.842;4.386;2024-03-22T05:49:14;12.10;99.90
22526;DHT22;11429;50.842;4.386;2024-03-22T05:51:39;12.10;99.90
22526;DHT22;11429;50.842;4.386;2024-03-22T05:54:05;12.00;99.90
22526;DHT22;11429;50.842;4.386;2024-03-22T05:56:32;12.00;99.90
22526;DHT22;11429;50.842;4.386;2024-03-22T05:58:57;12.10;99.90
22526;DHT22;11429;50.842;4.386;2024-03-22T06:01:23;12.10;99.90
22526;DHT22;11429;50.842;4.386;2024-03-22T06:03:49;12.10;99.90
22526;DHT22;11429;50.842;4.386;2024-03-22T06:06:14;12.10;99.90
22526;DHT22;11429;50.842;4.386;2024-03-22T06:08:41;11.90;99.90
22526;DHT22;11429;50.842;4.386;2024-03-22T06:11:09;11.90;99.90
22526;DHT22;11429;50.842;4.386;2024-03-22T06:13:34;11.80;99.90
22526;DHT22;11429;50.842;4.386;2024-03-22T06:16:02;11.80;99.90
22526;DHT22;11429;50.842;4.386;2024-03-22T06:18:27;11.70;99.90
22526;DHT22;11429;50.842;4.386;2024-03-22T06:20:53;11.80;99.90
22526;DHT22;11429;50.842;4.386;2024-03-22T06:23:21;11.60;99.90
22526;DHT22;11429;50.842;4.386;2024-03-22T06:25:55;11.70;99.90
22526;DHT22;11429;50.842;4.386;2024-03-22T06:28:22;11.80;99.90
22526;DHT22;11429;50.842;4.386;2024-03-22T06:30:48;11.80;99.90
22526;DHT22;11429;50.842;4.386;2024-03-22T06:33:14;11.90;99.90
22526;DHT22;11429;50.842;4.386;2024-03-22T06:35:41;11.80;99.90
22526;DHT22;11429;50.842;4.386;2024-03-22T06:38:07;11.90;99.90
22526;DHT22;11429;50.842;4.386;2024-03-22T06:40:32;11.80;99.90
22526;DHT22;11429;50.842;4.386;2024-03-22T06:42:58;11.80;99.90
22526;DHT22;11429;50.842;4.386;2024-03-22T06:45:24;11.80;99.90
22526;DHT22;11429;50.842;4.386;2024-03-22T06:47:50;11.80;99.90
22526;DHT22;11429;50.842;4.386;2024-03-22T06:50:15;11.80;99.90
22526;DHT22;11429;50.842;4.386;2024-03-22T06:52:43;11.90;99.90
22526;DHT22;11429;50.842;4.386;2024-03-22T06:55:09;12.10;99.90
22526;DHT22;11429;50.842;4.386;2024-03-22T06:57:34;11.90;99.90
22526;DHT22;11429;50.842;4.386;2024-03-22T07:00:00;11.90;99.90
22526;DHT22;11429;50.842;4.386;2024-03-22T07:02:26;11.90;99.90
22526;DHT22;11429;50.842;4.386;2024-03-22T07:04:58;12.00;99.90
22526;DHT22;11429;50.842;4.386;2024-03-22T07:07:26;11.90;99.90
22526;DHT22;11429;50.842;4.386;2024-03-22T07:09:52;12.00;99.90
22526;DHT22;11429;50.842;4.386;2024-03-22T07:12:17;11.80;99.90
22526;DHT22;11429;50.842;4.386;2024-03-22T07:14:43;11.90;99.90
22526;DHT22;11429;50.842;4.386;2024-03-22T07:17:09;12.00;99.90
22526;DHT22;11429;50.842;4.386;2024-03-22T07:19:35;11.90;99.90
22526;DHT22;11429;50.842;4.386;2024-03-22T07:22:01;11.90;99.90
22526;DHT22;11429;50.842;4.386;2024-03-22T07:24:27;12.00;99.90
22526;DHT22;11429;50.842;4.386;2024-03-22T07:26:53;12.10;99.90
22526;DHT22;11429;50.842;4.386;2024-03-22T07:29:19;12.00;99.90
22526;DHT22;11429;50.842;4.386;2024-03-22T07:31:45;11.90;99.90
22526;DHT22;11429;50.842;4.386;2024-03-22T07:34:11;11.90;99.90
22526;DHT22;11429;50.842;4.386;2024-03-22T07:36:39;11.90;99.90
22526;DHT22;11429;50.842;4.386;2024-03-22T07:39:05;12.00;99.90
22526;DHT22;11429;50.842;4.386;2024-03-22T07:41:34;12.10;99.90
22526;DHT22;11429;50.842;4.386;2024-03-22T07:44:01;12.00;99.90
22526;DHT22;11429;50.842;4.386;2024-03-22T07:46:27;12.00;99.90
22526;DHT22;11429;50.842;4.386;2024-03-22T07:48:53;12.10;99.90
22526;DHT22;11429;50.842;4.386;2024-03-22T07:51:19;12.10;99.90
22526;DHT22;11429;50.842;4.386;2024-03-22T07:53:46;12.10;99.90
22526;DHT22;11429;50.842;4.386;2024-03-22T07:56:11;11.80;99.90
22526;DHT22;11429;50.842;4.386;2024-03-22T07:58:38;12.00;99.90
22526;DHT22;11429;50.842;4.386;2024-03-22T08:01:04;12.00;99.90
22526;DHT22;11429;50.842;4.386;2024-03-22T08:03:29;12.30;99.90
22526;DHT22;11429;50.842;4.386;2024-03-22T08:05:55;12.20;99.90
22526;DHT22;11429;50.842;4.386;2024-03-22T08:08:21;12.20;99.90
22526;DHT22;11429;50.842;4.386;2024-03-22T08:10:47;12.20;99.90
22526;DHT22;11429;50.842;4.386;2024-03-22T08:13:12;12.20;99.90
22526;DHT22;11429;50.842;4.386;2024-03-22T08:15:38;12.40;99.90
22526;DHT22;11429;50.842;4.386;2024-03-22T08:18:04;12.30;99.90
22526;DHT22;11429;50.842;4.386;2024-03-22T08:20:29;12.30;99.90
22526;DHT22;11429;50.842;4.386;2024-03-22T08:22:57;12.20;99.90
22526;DHT22;11429;50.842;4.386;2024-03-22T08:25:23;12.20;99.90
22526;DHT22;11429;50.842;4.386;2024-03-22T08:27:50;12.20;99.90
22526;DHT22;11429;50.842;4.386;2024-03-22T08:30:19;12.30;99.90
22526;DHT22;11429;50.842;4.386;2024-03-22T08:32:45;12.10;99.90
22526;DHT22;11429;50.842;4.386;2024-03-22T08:35:11;12.30;99.90
22526;DHT22;11429;50.842;4.386;2024-03-22T08:37:36;12.50;99.90
22526;DHT22;11429;50.842;4.386;2024-03-22T08:40:02;12.30;99.90
22526;DHT22;11429;50.842;4.386;2024-03-22T08:42:30;12.60;99.90
22526;DHT22;11429;50.842;4.386;2024-03-22T08:44:55;12.50;99.90
22526;DHT22;11429;50.842;4.386;2024-03-22T08:47:21;12.50;99.90
22526;DHT22;11429;50.842;4.386;2024-03-22T08:49:47;12.70;99.90
22526;DHT22;11429;50.842;4.386;2024-03-22T08:52:12;12.80;99.90
22526;DHT22;11429;50.842;4.386;2024-03-22T08:54:38;12.90;99.90
22526;DHT22;11429;50.842;4.386;2024-03-22T08:57:04;13.00;99.90
22526;DHT22;11429;50.842;4.386;2024-03-22T08:59:30;13.10;99.90
22526;DHT22;11429;50.842;4.386;2024-03-22T09:01:55;12.70;99.90
22526;DHT22;11429;50.842;4.386;2024-03-22T09:04:21;13.00;99.90
22526;DHT22;11429;50.842;4.386;2024-03-22T09:06:47;13.20;99.90
22526;DHT22;11429;50.842;4.386;2024-03-22T09:09:13;13.00;99.90
22526;DHT22;11429;50.842;4.386;2024-03-22T09:11:38;13.40;99.90
22526;DHT22;11429;50.842;4.386;2024-03-22T09:14:04;13.40;99.90
22526;DHT22;11429;50.842;4.386;2024-03-22T09:16:30;13.70;99.90
22526;DHT22;11429;50.842;4.386;2024-03-22T09:18:56;13.80;99.90
22526;DHT22;11429;50.842;4.386;2024-03-22T09:21:22;13.40;99.90
22526;DHT22;11429;50.842;4.386;2024-03-22T09:23:50;13.30;99.90
22526;DHT22;11429;50.842;4.386;2024-03-22T09:26:15;13.70;99.90
22526;DHT22;11429;50.842;4.386;2024-03-22T09:28:41;13.60;99.90
22526;DHT22;11429;50.842;4.386;2024-03-22T09:31:08;13.80;99.90
22526;DHT22;11429;50.842;4.386;2024-03-22T09:33:34;13.80;99.90
22526;DHT22;11429;50.842;4.386;2024-03-22T09:36:01;13.90;99.90
22526;DHT22;11429;50.842;4.386;2024-03-22T09:38:27;13.70;99.90
22526;DHT22;11429;50.842;4.386;2024-03-22T09:40:54;13.60;99.90
22526;DHT22;11429;50.842;4.386;2024-03-22T09:43:21;13.50;99.90
22526;DHT22;11429;50.842;4.386;2024-03-22T09:45:48;13.60;99.90
22526;DHT22;11429;50.842;4.386;2024-03-22T09:48:17;13.70;99.90
22526;DHT22;11429;50.842;4.386;2024-03-22T09:50:45;13.70;99.90
22526;DHT22;11429;50.842;4.386;2024-03-22T09:53:12;13.80;99.90
22526;DHT22;11429;50.842;4.386;2024-03-22T09:55:39;14.20;99.90
22526;DHT22;11429;50.842;4.386;2024-03-22T09:58:09;14.20;99.90
22526;DHT22;11429;50.842;4.386;2024-03-22T10:00:35;14.20;99.90
22526;DHT22;11429;50.842;4.386;2024-03-22T10:03:01;14.10;99.90
22526;DHT22;11429;50.842;4.386;2024-03-22T10:05:29;13.90;99.90
22526;DHT22;11429;50.842;4.386;2024-03-22T10:07:55;13.70;99.90
22526;DHT22;11429;50.842;4.386;2024-03-22T10:10:21;13.70;99.90
22526;DHT22;11429;50.842;4.386;2024-03-22T10:12:47;13.70;99.90
22526;DHT22;11429;50.842;4.386;2024-03-22T10:15:13;13.50;99.90
22526;DHT22;11429;50.842;4.386;2024-03-22T10:17:39;13.40;99.90
22526;DHT22;11429;50.842;4.386;2024-03-22T10:20:06;13.30;99.90
22526;DHT22;11429;50.842;4.386;2024-03-22T10:22:41;13.20;99.90
22526;DHT22;11429;50.842;4.386;2024-03-22T10:25:07;13.20;99.90
22526;DHT22;11429;50.842;4.386;2024-03-22T10:27:32;13.20;99.90
22526;DHT22;11429;50.842;4.386;2024-03-22T10:29:58;13.30;99.90
22526;DHT22;11429;50.842;4.386;2024-03-22T10:32:24;13.50;99.90
22526;DHT22;11429;50.842;4.386;2024-03-22T10:34:50;13.70;99.90
22526;DHT22;11429;50.842;4.386;2024-03-22T10:37:16;13.60;99.90
22526;DHT22;11429;50.842;4.386;2024-03-22T10:39:43;13.60;99.90
22526;DHT22;11429;50.842;4.386;2024-03-22T10:42:11;13.70;99.90
22526;DHT22;11429;50.842;4.386;2024-03-22T10:44:38;13.80;99.90
22526;DHT22;11429;50.842;4.386;2024-03-22T10:47:06;13.90;99.90
22526;DHT22;11429;50.842;4.386;2024-03-22T10:49:37;13.90;99.90
22526;DHT22;11429;50.842;4.386;2024-03-22T10:52:03;13.90;99.90
22526;DHT22;11429;50.842;4.386;2024-03-22T10:54:38;14.30;99.90
22526;DHT22;11429;50.842;4.386;2024-03-22T10:57:06;14.50;99.90
22526;DHT22;11429;50.842;4.386;2024-03-22T10:59:34;14.30;99.90
22526;DHT22;11429;50.842;4.386;2024-03-22T11:02:04;14.20;99.90
22526;DHT22;11429;50.842;4.386;2024-03-22T11:04:32;14.20;99.90
22526;DHT22;11429;50.842;4.386;2024-03-22T11:06:58;14.10;99.90
22526;DHT22;11429;50.842;4.386;2024-03-22T11:09:26;14.00;99.90
22526;DHT22;11429;50.842;4.386;2024-03-22T11:11:53;14.10;99.90
22526;DHT22;11429;50.842;4.386;2024-03-22T11:14:19;14.10;99.90
22526;DHT22;11429;50.842;4.386;2024-03-22T11:16:48;14.20;99.90
22526;DHT22;11429;50.842;4.386;2024-03-22T11:19:14;14.20;99.90
22526;DHT22;11429;50.842;4.386;2024-03-22T11:21:40;14.20;99.90
22526;DHT22;11429;50.842;4.386;2024-03-22T11:24:06;14.30;99.90
22526;DHT22;11429;50.842;4.386;2024-03-22T11:26:35;14.30;99.90
22526;DHT22;11429;50.842;4.386;2024-03-22T11:29:00;14.40;99.90
22526;DHT22;11429;50.842;4.386;2024-03-22T11:31:27;14.30;99.90
22526;DHT22;11429;50.842;4.386;2024-03-22T11:33:53;14.10;99.90
22526;DHT22;11429;50.842;4.386;2024-03-22T11:36:20;14.00;99.90
22526;DHT22;11429;50.842;4.386;2024-03-22T11:38:46;14.00;99.90
22526;DHT22;11429;50.842;4.386;2024-03-22T11:41:22;13.90;99.90
22526;DHT22;11429;50.842;4.386;2024-03-22T11:43:49;14.00;99.90
22526;DHT22;11429;50.842;4.386;2024-03-22T11:46:16;14.00;99.90
22526;DHT22;11429;50.842;4.386;2024-03-22T11:48:42;13.90;99.90
22526;DHT22;11429;50.842;4.386;2024-03-22T11:51:09;13.90;99.90
22526;DHT22;11429;50.842;4.386;2024-03-22T11:53:36;13.80;99.90
22526;DHT22;11429;50.842;4.386;2024-03-22T11:56:03;13.90;99.90
22526;DHT22;11429;50.842;4.386;2024-03-22T11:58:30;13.80;99.90
22526;DHT22;11429;50.842;4.386;2024-03-22T12:00:57;13.80;99.90
22526;DHT22;11429;50.842;4.386;2024-03-22T12:03:23;13.90;99.90
22526;DHT22;11429;50.842;4.386;2024-03-22T12:05:49;13.90;99.90
22526;DHT22;11429;50.842;4.386;2024-03-22T12:08:20;13.80;99.90
22526;DHT22;11429;50.842;4.386;2024-03-22T12:10:46;14.00;99.90
22526;DHT22;11429;50.842;4.386;2024-03-22T12:13:12;14.10;99.90
22526;DHT22;11429;50.842;4.386;2024-03-22T12:15:37;14.00;99.90
22526;DHT22;11429;50.842;4.386;2024-03-22T12:18:03;14.20;99.90
22526;DHT22;11429;50.842;4.386;2024-03-22T12:20:29;14.00;99.90
22526;DHT22;11429;50.842;4.386;2024-03-22T12:22:55;14.00;99.90
22526;DHT22;11429;50.842;4.386;2024-03-22T12:25:21;13.90;99.90
22526;DHT22;11429;50.842;4.386;2024-03-22T12:27:47;13.90;99.90
22526;DHT22;11429;50.842;4.386;2024-03-22T12:30:13;13.80;99.90
22526;DHT22;11429;50.842;4.386;2024-03-22T12:32:38;13.80;99.90
22526;DHT22;11429;50.842;4.386;2024-03-22T12:35:05;13.50;99.90
22526;DHT22;11429;50.842;4.386;2024-03-22T12:37:31;13.60;99.90
22526;DHT22;11429;50.842;4.386;2024-03-22T12:39:56;13.50;99.90
22526;DHT22;11429;50.842;4.386;2024-03-22T12:42:22;13.50;99.90
22526;DHT22;11429;50.842;4.386;2024-03-22T12:44:48;13.50;99.90
22526;DHT22;11429;50.842;4.386;2024-03-22T12:47:14;13.60;99.90
22526;DHT22;11429;50.842;4.386;2024-03-22T12:49:40;13.50;99.90
22526;DHT22;11429;50.842;4.386;2024-03-22T12:52:06;13.60;99.90
22526;DHT22;11429;50.842;4.386;2024-03-22T12:54:32;13.50;99.90
22526;DHT22;11429;50.842;4.386;2024-03-22T12:56:58;13.60;99.90
22526;DHT22;11429;50.842;4.386;2024-03-22T12:59:23;13.50;99.90
22526;DHT22;11429;50.842;4.386;2024-03-22T13:01:49;13.40;99.90
22526;DHT22;11429;50.842;4.386;2024-03-22T13:04:15;13.40;99.90
22526;DHT22;11429;50.842;4.386;2024-03-22T13:06:43;13.40;99.90
22526;DHT22;11429;50.842;4.386;2024-03-22T13:09:08;13.50;99.90
22526;DHT22;11429;50.842;4.386;2024-03-22T13:11:35;13.30;99.90
22526;DHT22;11429;50.842;4.386;2024-03-22T13:14:01;13.10;99.90
22526;DHT22;11429;50.842;4.386;2024-03-22T13:16:27;13.30;99.90
22526;DHT22;11429;50.842;4.386;2024-03-22T13:18:53;13.20;99.90
22526;DHT22;11429;50.842;4.386;2024-03-22T13:21:19;13.40;99.90
22526;DHT22;11429;50.842;4.386;2024-03-22T13:23:45;13.50;99.90
22526;DHT22;11429;50.842;4.386;2024-03-22T13:26:10;13.60;99.90
22526;DHT22;11429;50.842;4.386;2024-03-22T13:28:42;13.80;99.90
22526;DHT22;11429;50.842;4.386;2024-03-22T13:31:09;13.80;99.90
22526;DHT22;11429;50.842;4.386;2024-03-22T13:33:34;13.90;99.90
22526;DHT22;11429;50.842;4.386;2024-03-22T13:36:12;13.90;99.90
22526;DHT22;11429;50.842;4.386;2024-03-22T13:38:38;13.90;99.90
22526;DHT22;11429;50.842;4.386;2024-03-22T13:41:04;14.10;99.90
22526;DHT22;11429;50.842;4.386;2024-03-22T13:43:31;14.00;99.90
22526;DHT22;11429;50.842;4.386;2024-03-22T13:45:57;14.00;99.90
22526;DHT22;11429;50.842;4.386;2024-03-22T13:48:24;14.10;99.90
22526;DHT22;11429;50.842;4.386;2024-03-22T13:50:54;13.70;99.90
22526;DHT22;11429;50.842;4.386;2024-03-22T13:53:20;13.40;99.90
22526;DHT22;11429;50.842;4.386;2024-03-22T13:55:50;13.50;99.90
22526;DHT22;11429;50.842;4.386;2024-03-22T13:58:15;13.50;99.90
22526;DHT22;11429;50.842;4.386;2024-03-22T14:00:41;13.70;99.90
22526;DHT22;11429;50.842;4.386;2024-03-22T14:03:07;14.00;99.90
22526;DHT22;11429;50.842;4.386;2024-03-22T14:05:33;13.90;99.90
22526;DHT22;11429;50.842;4.386;2024-03-22T14:07:59;13.70;99.90
22526;DHT22;11429;50.842;4.386;2024-03-22T14:10:25;13.60;99.90
22526;DHT22;11429;50.842;4.386;2024-03-22T14:12:56;13.70;99.90
22526;DHT22;11429;50.842;4.386;2024-03-22T14:15:25;13.70;99.90
22526;DHT22;11429;50.842;4.386;2024-03-22T14:17:52;13.70;99.90
22526;DHT22;11429;50.842;4.386;2024-03-22T14:20:18;13.60;99.90
22526;DHT22;11429;50.842;4.386;2024-03-22T14:22:44;13.40;99.90
22526;DHT22;11429;50.842;4.386;2024-03-22T14:25:11;13.50;99.90
22526;DHT22;11429;50.842;4.386;2024-03-22T14:27:37;13.50;99.90
22526;DHT22;11429;50.842;4.386;2024-03-22T14:30:05;13.40;99.90
22526;DHT22;11429;50.842;4.386;2024-03-22T14:32:34;13.50;99.90
22526;DHT22;11429;50.842;4.386;2024-03-22T14:35:00;13.50;99.90
22526;DHT22;11429;50.842;4.386;2024-03-22T14:37:26;13.40;99.90
22526;DHT22;11429;50.842;4.386;2024-03-22T14:39:52;13.40;99.90
22526;DHT22;11429;50.842;4.386;2024-03-22T14:42:17;13.30;99.90
22526;DHT22;11429;50.842;4.386;2024-03-22T14:44:43;13.30;99.90
22526;DHT22;11429;50.842;4.386;2024-03-22T14:47:10;13.40;99.90
22526;DHT22;11429;50.842;4.386;2024-03-22T14:49:35;13.40;99.90
22526;DHT22;11429;50.842;4.386;2024-03-22T14:52:01;13.70;99.90
22526;DHT22;11429;50.842;4.386;2024-03-22T14:54:27;13.50;99.90
22526;DHT22;11429;50.842;4.386;2024-03-22T14:56:53;13.50;99.90
22526;DHT22;11429;50.842;4.386;2024-03-22T14:59:21;13.30;99.90
22526;DHT22;11429;50.842;4.386;2024-03-22T15:01:47;13.40;99.90
22526;DHT22;11429;50.842;4.386;2024-03-22T15:04:13;13.20;99.90
22526;DHT22;11429;50.842;4.386;2024-03-22T15:06:39;13.20;99.90
22526;DHT22;11429;50.842;4.386;2024-03-22T15:09:04;13.20;99.90
22526;DHT22;11429;50.842;4.386;2024-03-22T15:11:36;13.50;99.90
22526;DHT22;11429;50.842;4.386;2024-03-22T15:14:02;13.30;99.90
22526;DHT22;11429;50.842;4.386;2024-03-22T15:16:29;13.20;99.90
22526;DHT22;11429;50.842;4.386;2024-03-22T15:18:54;13.40;99.90
22526;DHT22;11429;50.842;4.386;2024-03-22T15:21:22;13.40;99.90
22526;DHT22;11429;50.842;4.386;2024-03-22T15:23:47;13.10;99.90